Time;durP1;ratioP1;P1;durP2;ratioP2;P2;SDS_P1;SDS_P2;PMS_P1;PMS_P2;Temp;Humidity;BMP_temperature;BMP_pressure;BME280_temperature;BME280_humidity;BME280_pressure;Samples;Min_cycle;Max_cycle;Signal;HPM_P1;HPM_P2
2021/03/08 00:00:58;;;;;;;32.45;19.63;;;;;;;4.44;72.08;96414.06;5050746;28;20052;-68
2021/03/08 00:03:25;;;;;;;35.75;19.80;;;;;;;4.36;72.19;96414.63;5048992;28;20045;-67
2021/03/08 00:05:50;;;;;;;32.50;18.48;;;;;;;4.23;72.18;96414.41;5050781;28;20045;-68
2021/03/08 00:08:16;;;;;;;35.10;18.55;;;;;;;4.12;72.20;96419.03;5048274;28;20153;-68
2021/03/08 00:10:43;;;;;;;35.55;19.05;;;;;;;3.98;72.26;96412.63;5050447;28;20059;-68
2021/03/08 00:13:09;;;;;;;35.92;18.80;;;;;;;3.97;72.29;96409.13;5049012;28;20412;-68
2021/03/08 00:15:36;;;;;;;34.10;19.35;;;;;;;3.98;72.49;96407.22;5053863;28;20045;-68
2021/03/08 00:18:02;;;;;;;35.28;19.30;;;;;;;3.95;72.25;96403.19;5053694;28;20045;-69
2021/03/08 00:20:28;;;;;;;39.00;19.35;;;;;;;4.00;72.03;96410.44;5053629;28;20045;-68
2021/03/08 00:22:56;;;;;;;31.58;18.40;;;;;;;4.02;72.01;96403.72;5054155;28;20102;-67
2021/03/08 00:25:24;;;;;;;37.90;19.33;;;;;;;4.08;71.90;96407.19;5052771;28;20052;-68
2021/03/08 00:27:51;;;;;;;33.42;18.13;;;;;;;4.11;71.77;96412.03;5052743;28;20049;-68
2021/03/08 00:30:18;;;;;;;34.40;19.10;;;;;;;4.13;71.72;96412.56;5052651;28;20060;-67
2021/03/08 00:32:44;;;;;;;35.03;19.25;;;;;;;4.13;71.44;96416.06;5053424;28;20048;-67
2021/03/08 00:35:11;;;;;;;35.42;18.70;;;;;;;4.14;71.10;96414.19;5052962;28;20518;-68
2021/03/08 00:37:38;;;;;;;39.58;18.58;;;;;;;4.15;71.18;96415.78;5053949;28;20033;-68
2021/03/08 00:40:06;;;;;;;37.53;18.95;;;;;;;4.16;71.22;96414.69;5052748;28;20041;-68
2021/03/08 00:42:33;;;;;;;34.55;18.63;;;;;;;4.16;71.31;96414.69;5053697;28;20045;-68
2021/03/08 00:45:00;;;;;;;36.38;19.20;;;;;;;4.17;71.24;96410.91;5053832;28;20196;-68
2021/03/08 00:47:26;;;;;;;34.67;18.83;;;;;;;4.19;71.08;96408.78;5052543;28;20573;-68
2021/03/08 00:49:52;;;;;;;34.40;19.25;;;;;;;4.18;70.94;96399.88;5053954;28;20048;-68
2021/03/08 00:52:19;;;;;;;34.22;18.80;;;;;;;4.19;70.66;96398.00;5052239;28;20135;-68
2021/03/08 00:54:45;;;;;;;36.30;18.73;;;;;;;4.13;70.28;96399.91;5054204;28;20041;-67
2021/03/08 00:57:11;;;;;;;33.60;18.23;;;;;;;4.02;70.32;96397.50;5052307;28;20045;-68
2021/03/08 00:59:37;;;;;;;37.13;18.95;;;;;;;3.90;70.39;96400.50;5053846;28;20052;-68
2021/03/08 01:02:04;;;;;;;35.30;18.67;;;;;;;3.70;70.69;96395.97;5052524;28;20091;-68
2021/03/08 01:04:31;;;;;;;34.85;18.35;;;;;;;3.61;71.09;96381.47;5053294;28;20041;-68
2021/03/08 01:06:57;;;;;;;36.80;18.52;;;;;;;3.54;70.92;96372.84;5052969;28;20044;-68
2021/03/08 01:09:23;;;;;;;28.88;16.92;;;;;;;3.51;70.97;96376.09;5052645;28;20048;-68
2021/03/08 01:11:49;;;;;;;32.63;18.73;;;;;;;3.45;70.79;96379.88;5053508;28;20056;-67
2021/03/08 01:14:15;;;;;;;32.85;17.58;;;;;;;3.39;70.94;96389.84;5052044;28;20053;-68
2021/03/08 01:16:41;;;;;;;33.75;18.88;;;;;;;3.35;70.99;96389.59;5053614;28;20053;-68
2021/03/08 01:19:08;;;;;;;37.38;18.63;;;;;;;3.27;71.01;96384.75;5051679;28;20045;-68
2021/03/08 01:21:34;;;;;;;34.65;17.52;;;;;;;3.22;70.73;96383.94;5053614;28;20049;-67
2021/03/08 01:24:00;;;;;;;35.33;17.40;;;;;;;3.11;70.81;96388.50;5052344;28;20049;-68
2021/03/08 01:26:26;;;;;;;33.35;18.55;;;;;;;3.01;71.13;96392.00;5052696;28;20048;-68
2021/03/08 01:28:53;;;;;;;31.13;17.40;;;;;;;2.94;71.48;96387.97;5052296;28;20041;-68
2021/03/08 01:31:19;;;;;;;38.50;19.00;;;;;;;2.86;71.82;96384.72;5052403;28;20408;-67
2021/03/08 01:33:45;;;;;;;31.55;18.10;;;;;;;2.79;72.19;96381.50;5052819;28;20068;-68
2021/03/08 01:36:11;;;;;;;36.63;19.02;;;;;;;2.72;72.36;96380.16;5052039;28;20053;-67
2021/03/08 01:38:37;;;;;;;38.08;18.92;;;;;;;2.64;72.69;96378.78;5052750;28;20041;-68
2021/03/08 01:41:03;;;;;;;38.85;18.55;;;;;;;2.58;72.73;96371.81;5051544;28;20049;-68
2021/03/08 01:43:29;;;;;;;39.13;18.48;;;;;;;2.53;72.49;96371.78;5053332;28;20052;-68
2021/03/08 01:45:55;;;;;;;33.50;18.73;;;;;;;2.48;72.52;96372.59;5052059;28;20045;-68
2021/03/08 01:48:21;;;;;;;35.00;18.33;;;;;;;2.45;72.92;96367.72;5052017;28;20067;-68
2021/03/08 01:50:49;;;;;;;33.75;18.83;;;;;;;2.43;73.12;96366.41;5051359;28;20407;-67
2021/03/08 01:53:18;;;;;;;34.03;18.65;;;;;;;2.37;73.21;96372.84;5051662;28;20048;-68
2021/03/08 01:55:45;;;;;;;36.30;19.02;;;;;;;2.30;72.94;96363.16;5051982;28;20037;-67
2021/03/08 01:58:12;;;;;;;36.95;18.70;;;;;;;2.26;73.26;96372.81;5051676;28;20091;-68
2021/03/08 02:00:39;;;;;;;32.65;17.95;;;;;;;2.21;73.54;96370.09;5052455;28;20542;-68
2021/03/08 02:03:05;;;;;;;32.88;17.88;;;;;;;2.17;73.38;96374.38;5051312;28;20504;-68
2021/03/08 02:05:33;;;;;;;32.15;17.60;;;;;;;2.16;73.34;96372.78;5052730;28;20106;-68
2021/03/08 02:08:01;;;;;;;36.20;19.20;;;;;;;2.15;72.83;96373.06;5051425;28;20045;-67
2021/03/08 02:10:30;;;;;;;33.55;17.27;;;;;;;2.08;72.91;96370.59;5052378;28;20060;-67
2021/03/08 02:13:11;;;;;;;30.98;17.05;;;;;;;2.04;72.94;96372.22;5051224;28;20044;-67
2021/03/08 02:15:47;;;;;;;30.92;17.20;;;;;;;1.98;73.06;96360.59;5051783;28;20056;-68
2021/03/08 02:18:23;;;;;;;31.27;16.55;;;;;;;1.95;72.78;96361.16;5051596;28;20052;-67
2021/03/08 02:20:56;;;;;;;30.67;16.63;;;;;;;1.93;72.60;96359.78;5050930;28;20103;-67
2021/03/08 02:24:00;;;;;;;29.33;16.50;;;;;;;1.91;72.45;96360.06;5051859;28;20041;-68
2021/03/08 02:26:36;;;;;;;31.65;17.30;;;;;;;1.87;72.47;96363.53;5051603;28;20044;-69
2021/03/08 02:29:12;;;;;;;30.20;15.90;;;;;;;1.86;72.33;96356.53;5051080;28;20701;-67
2021/03/08 02:31:41;;;;;;;28.65;16.33;;;;;;;1.82;72.09;96356.25;5051955;28;20049;-69
2021/03/08 02:34:11;;;;;;;31.42;15.82;;;;;;;1.79;72.10;96362.97;5050693;28;20049;-69
2021/03/08 02:36:44;;;;;;;32.63;15.90;;;;;;;1.73;72.15;96360.53;5051637;28;20041;-69
2021/03/08 02:39:13;;;;;;;30.48;16.50;;;;;;;1.74;72.19;96365.63;5050368;28;20114;-67
2021/03/08 02:41:42;;;;;;;30.33;16.70;;;;;;;1.69;71.98;96360.22;5052061;28;20049;-67
2021/03/08 02:44:12;;;;;;;31.27;16.33;;;;;;;1.67;72.06;96362.38;5050363;28;20045;-67
2021/03/08 02:46:42;;;;;;;28.42;15.85;;;;;;;1.65;71.93;96355.63;5051451;28;20044;-67
2021/03/08 02:49:14;;;;;;;34.70;16.85;;;;;;;1.61;71.87;96360.72;5050904;28;20049;-67
2021/03/08 02:51:44;;;;;;;27.77;15.48;;;;;;;1.58;72.05;96361.25;5050962;28;20044;-67
2021/03/08 02:54:11;;;;;;;31.05;16.48;;;;;;;1.55;71.99;96362.56;5051217;28;20053;-68
2021/03/08 02:56:40;;;;;;;30.88;16.40;;;;;;;1.51;71.93;96360.66;5050307;28;20476;-67
2021/03/08 02:59:08;;;;;;;28.73;15.90;;;;;;;1.48;71.91;96361.19;5031444;28;20050;-68
2021/03/08 03:01:36;;;;;;;30.75;16.75;;;;;;;1.43;72.03;96364.66;5030482;28;20045;-67
2021/03/08 03:04:05;;;;;;;31.05;16.52;;;;;;;1.39;72.04;96365.44;5031156;28;20050;-67
2021/03/08 03:06:33;;;;;;;31.83;16.23;;;;;;;1.34;71.99;96355.47;5030538;28;20072;-68
2021/03/08 03:09:03;;;;;;;29.17;16.63;;;;;;;1.32;72.28;96357.63;5030992;28;20049;-68
2021/03/08 03:11:30;;;;;;;31.67;17.25;;;;;;;1.29;72.40;96356.25;5030778;28;20044;-67
2021/03/08 03:13:57;;;;;;;30.58;17.00;;;;;;;1.24;72.68;96356.22;5030363;28;20049;-68
2021/03/08 03:16:25;;;;;;;33.30;17.48;;;;;;;1.20;72.88;96352.44;5030790;28;20052;-68
2021/03/08 03:18:54;;;;;;;30.67;16.92;;;;;;;1.18;72.98;96351.88;5035035;28;20045;-67
2021/03/08 03:21:24;;;;;;;32.35;17.38;;;;;;;1.14;73.01;96358.81;5050945;28;20049;-68
2021/03/08 03:23:53;;;;;;;31.70;17.73;;;;;;;1.14;73.03;96356.13;5050194;28;20057;-67
2021/03/08 03:26:20;;;;;;;34.38;17.25;;;;;;;1.12;73.15;96357.47;5050540;28;20079;-67
2021/03/08 03:28:47;;;;;;;32.90;16.80;;;;;;;1.10;73.04;96355.06;5050296;28;20044;-68
2021/03/08 03:31:14;;;;;;;30.95;16.85;;;;;;;1.09;72.85;96356.09;5050387;28;20099;-68
2021/03/08 03:33:41;;;;;;;34.58;18.55;;;;;;;1.07;72.82;96358.25;5049471;28;20052;-68
2021/03/08 03:36:08;;;;;;;36.13;18.38;;;;;;;1.04;72.91;96366.78;5049561;28;20049;-68
2021/03/08 03:38:36;;;;;;;30.20;17.25;;;;;;;1.02;72.95;96363.56;5050992;28;20045;-67
2021/03/08 03:41:03;;;;;;;27.55;16.55;;;;;;;0.98;73.00;96373.19;5049282;28;20075;-68
2021/03/08 03:43:31;;;;;;;32.92;17.75;;;;;;;0.95;73.23;96368.34;5051293;28;20048;-67
2021/03/08 03:46:00;;;;;;;28.70;16.58;;;;;;;0.94;73.30;96361.34;5049609;28;20045;-67
2021/03/08 03:48:26;;;;;;;29.92;17.23;;;;;;;0.92;73.17;96363.50;5060738;28;20048;-67
2021/03/08 03:50:52;;;;;;;32.25;17.55;;;;;;;0.92;72.82;96363.50;5069813;28;20056;-67
2021/03/08 03:53:18;;;;;;;31.08;17.70;;;;;;;0.90;72.70;96371.00;5050345;28;20045;-67
2021/03/08 03:55:44;;;;;;;32.45;17.08;;;;;;;0.87;72.74;96383.03;5050272;28;20041;-68
2021/03/08 03:58:18;;;;;;;31.10;16.60;;;;;;;0.88;72.75;96381.16;5049434;28;20053;-67
2021/03/08 04:00:53;;;;;;;32.45;16.98;;;;;;;0.86;73.11;96388.66;5050714;28;20075;-67
2021/03/08 04:03:24;;;;;;;31.23;16.83;;;;;;;0.84;73.14;96388.91;5049266;28;20052;-67
2021/03/08 04:05:52;;;;;;;30.80;17.55;;;;;;;0.84;73.08;96382.75;5050887;28;20045;-67
2021/03/08 04:08:23;;;;;;;29.25;16.70;;;;;;;0.83;73.18;96386.47;5049039;28;20069;-67
2021/03/08 04:10:51;;;;;;;35.72;17.83;;;;;;;0.81;73.19;96388.59;5050596;28;20526;-67
2021/03/08 04:13:19;;;;;;;33.35;17.10;;;;;;;0.80;73.25;96395.84;5049460;28;20057;-67
2021/03/08 04:15:45;;;;;;;35.03;18.90;;;;;;;0.73;73.32;96414.81;5049880;28;20045;-67
2021/03/08 04:18:12;;;;;;;34.60;18.52;;;;;;;0.71;73.65;96411.56;5061702;28;20118;-67
2021/03/08 04:20:40;;;;;;;33.92;18.75;;;;;;;0.71;73.87;96411.56;5069680;28;20491;-67
2021/03/08 04:23:10;;;;;;;32.08;17.33;;;;;;;0.68;73.90;96409.41;5051923;28;20052;-67
2021/03/08 04:25:38;;;;;;;34.90;17.13;;;;;;;0.66;74.03;96411.50;5049570;28;20045;-67
2021/03/08 04:28:06;;;;;;;33.10;17.83;;;;;;;0.62;74.00;96413.06;5049802;28;20045;-68
2021/03/08 04:30:33;;;;;;;32.70;17.50;;;;;;;0.60;74.25;96412.53;5049401;28;20049;-68
2021/03/08 04:32:59;;;;;;;30.75;17.70;;;;;;;0.57;74.09;96414.91;5050131;28;20126;-67
2021/03/08 04:35:28;;;;;;;32.60;16.45;;;;;;;0.57;73.96;96415.69;5049236;28;20041;-67
2021/03/08 04:37:57;;;;;;;31.15;15.95;;;;;;;0.43;72.79;96411.81;5049687;28;20554;-67
2021/03/08 04:40:24;;;;;;;30.05;16.00;;;;;;;0.42;73.08;96418.25;5049751;28;20036;-67
2021/03/08 04:42:51;;;;;;;28.40;14.85;;;;;;;0.41;73.12;96416.59;5049520;28;20401;-67
2021/03/08 04:45:20;;;;;;;31.25;15.82;;;;;;;0.36;72.33;96408.50;5049980;28;20056;-67
2021/03/08 04:47:46;;;;;;;26.42;14.80;;;;;;;0.38;72.25;96406.41;5048828;28;20041;-67
2021/03/08 04:50:14;;;;;;;31.15;15.15;;;;;;;0.40;72.17;96406.97;5049986;28;20041;-67
2021/03/08 04:52:45;;;;;;;28.98;15.63;;;;;;;0.42;72.19;96407.53;5049059;28;20049;-67
2021/03/08 04:55:13;;;;;;;29.38;15.43;;;;;;;0.44;72.04;96406.22;5049568;28;20684;-67
2021/03/08 04:57:41;;;;;;;30.33;15.15;;;;;;;0.46;71.74;96411.31;5049216;28;20041;-67
2021/03/08 05:00:09;;;;;;;26.83;14.75;;;;;;;0.44;71.53;96426.84;5050292;28;20084;-67
2021/03/08 05:02:37;;;;;;;28.33;15.30;;;;;;;0.42;71.34;96412.91;5053555;28;20099;-67
2021/03/08 05:05:07;;;;;;;30.05;16.70;;;;;;;0.43;71.10;96411.81;5052777;28;20052;-68
2021/03/08 05:07:37;;;;;;;28.75;15.95;;;;;;;0.42;70.85;96402.97;5053706;28;20045;-67
2021/03/08 05:10:05;;;;;;;29.00;15.30;;;;;;;0.43;70.49;96404.59;5052154;28;20048;-67
2021/03/08 05:12:34;;;;;;;27.90;15.27;;;;;;;0.41;70.42;96408.56;5053765;28;20067;-67
2021/03/08 05:15:05;;;;;;;27.55;15.40;;;;;;;0.37;70.30;96421.69;5052682;28;20411;-67
2021/03/08 05:17:32;;;;;;;28.02;14.43;;;;;;;0.33;70.50;96425.09;5036647;28;20083;-67
2021/03/08 05:20:00;;;;;;;25.25;14.27;;;;;;;0.30;70.54;96436.31;5033058;28;20464;-67
2021/03/08 05:22:26;;;;;;;25.92;14.20;;;;;;;0.27;70.82;96426.13;5045094;28;20416;-67
2021/03/08 05:24:54;;;;;;;28.77;15.50;;;;;;;0.25;70.66;96440.53;5053055;28;20053;-67
2021/03/08 05:27:21;;;;;;;27.65;15.45;;;;;;;0.25;70.70;96440.53;5051706;28;20084;-67
2021/03/08 05:29:48;;;;;;;29.52;16.20;;;;;;;0.20;70.30;96442.34;5053441;28;20044;-67
2021/03/08 05:32:18;;;;;;;29.55;16.73;;;;;;;0.15;70.51;96443.09;5051917;28;20048;-67
2021/03/08 05:34:48;;;;;;;28.92;17.40;;;;;;;0.16;70.48;96447.41;5053410;28;20040;-67
2021/03/08 05:37:17;;;;;;;30.58;17.17;;;;;;;0.16;70.27;96444.75;5051628;28;20103;-67
2021/03/08 05:39:44;;;;;;;28.00;16.55;;;;;;;0.14;70.46;96441.47;5052886;28;20045;-67
2021/03/08 05:42:12;;;;;;;30.48;16.75;;;;;;;0.13;70.30;96447.91;5051995;28;20569;-67
2021/03/08 05:44:50;;;;;;;32.67;15.75;;;;;;;0.09;70.58;96446.78;5052715;28;20037;-67
2021/03/08 05:47:40;;;;;;;30.83;17.25;;;;;;;0.10;70.70;96443.03;5052001;28;20037;-67
2021/03/08 05:50:27;;;;;;;30.10;15.60;;;;;;;0.11;70.88;96449.22;5051356;28;20480;-68
2021/03/08 05:53:19;;;;;;;27.02;15.18;;;;;;;0.11;70.40;96451.91;5052890;28;20049;-67
2021/03/08 05:56:09;;;;;;;28.38;15.35;;;;;;;0.11;70.08;96455.38;5046618;28;20516;-67
2021/03/08 05:58:55;;;;;;;25.35;14.20;;;;;;;0.09;70.00;96462.84;5051491;28;20456;-67
2021/03/08 06:01:52;;;;;;;26.73;14.43;;;;;;;0.08;69.93;96463.91;5052403;28;20431;-67
2021/03/08 06:04:53;;;;;;;30.95;14.98;;;;;;;0.02;70.15;96464.91;5051897;28;20049;-67
2021/03/08 06:07:56;;;;;;;31.70;15.35;;;;;;;0.04;70.15;96468.13;5051019;28;20492;-67
2021/03/08 06:10:24;;;;;;;30.95;16.20;;;;;;;0.06;70.16;96467.91;5049612;28;20581;-67
2021/03/08 06:12:54;;;;;;;31.88;18.75;;;;;;;0.07;70.11;96469.53;5049907;28;20056;-67
2021/03/08 06:15:21;;;;;;;42.53;22.15;;;;;;;0.09;69.99;96470.88;5051915;28;20511;-67
2021/03/08 06:17:49;;;;;;;41.25;21.55;;;;;;;0.10;69.61;96477.84;5051225;28;20451;-67
2021/03/08 06:20:17;;;;;;;34.83;19.35;;;;;;;0.11;69.68;96487.53;5051740;28;20575;-67
2021/03/08 06:22:45;;;;;;;31.52;17.30;;;;;;;0.14;69.51;96478.97;5051979;28;20049;-67
2021/03/08 06:25:12;;;;;;;30.75;17.38;;;;;;;0.17;69.48;96486.53;5050809;28;20554;-67
2021/03/08 06:27:42;;;;;;;30.50;15.95;;;;;;;0.21;69.09;96486.84;5051897;28;20049;-67
2021/03/08 06:30:09;;;;;;;27.10;15.55;;;;;;;0.21;69.08;96493.00;5050713;28;20049;-67
2021/03/08 06:32:35;;;;;;;28.02;16.55;;;;;;;0.24;69.41;96503.22;5052129;28;20056;-67
2021/03/08 06:35:01;;;;;;;30.25;17.15;;;;;;;0.29;69.72;96498.97;5051301;28;20049;-67
2021/03/08 06:37:29;;;;;;;27.33;17.02;;;;;;;0.33;69.81;96494.75;5051660;28;20131;-67
2021/03/08 06:39:55;;;;;;;30.98;17.05;;;;;;;0.37;70.03;96503.91;5051312;28;20049;-67
2021/03/08 06:42:22;;;;;;;26.08;15.60;;;;;;;0.42;69.69;96495.94;5050097;28;20049;-67
2021/03/08 06:44:50;;;;;;;25.92;15.13;;;;;;;0.45;69.24;96498.91;5051551;28;20049;-67
2021/03/08 06:47:18;;;;;;;25.58;14.63;;;;;;;0.47;68.96;96504.00;5051079;28;20045;-67
2021/03/08 06:49:44;;;;;;;26.83;14.50;;;;;;;0.49;68.60;96509.94;5052213;28;20045;-67
2021/03/08 06:52:12;;;;;;;31.73;14.68;;;;;;;0.50;68.78;96506.19;5050155;28;20057;-67
2021/03/08 06:54:39;;;;;;;27.08;14.57;;;;;;;0.55;69.08;96508.94;5051813;28;20060;-66
2021/03/08 06:57:25;;;;;;;31.52;15.63;;;;;;;0.56;68.97;96515.09;5050194;28;20044;-66
2021/03/08 06:59:53;;;;;;;28.90;13.45;;;;;;;0.59;69.04;96518.09;5051310;28;20053;-66
2021/03/08 07:02:20;;;;;;;25.65;14.00;;;;;;;0.61;68.88;96510.63;5050684;28;20045;-66
2021/03/08 07:04:46;;;;;;;24.48;14.10;;;;;;;0.63;67.86;96511.19;5050920;28;20041;-66
2021/03/08 07:07:13;;;;;;;23.23;13.48;;;;;;;0.66;67.80;96516.03;5050613;28;20381;-66
2021/03/08 07:09:49;;;;;;;24.55;13.68;;;;;;;0.76;68.21;96518.81;5051270;28;20056;-67
2021/03/08 07:12:15;;;;;;;25.17;13.75;;;;;;;0.85;69.13;96524.56;5051067;28;20484;-67
2021/03/08 07:14:44;;;;;;;27.05;14.02;;;;;;;0.94;69.22;96523.06;5050411;28;20122;-67
2021/03/08 07:17:44;;;;;;;23.73;13.05;;;;;;;1.07;68.88;96529.88;5050733;28;20045;-67
2021/03/08 07:20:13;;;;;;;20.63;12.82;;;;;;;1.15;67.98;96529.44;4988693;28;20088;-67
2021/03/08 07:22:42;;;;;;;20.08;12.10;;;;;;;1.27;67.84;96518.53;4974402;28;20043;-67
2021/03/08 07:25:19;;;;;;;26.00;12.77;;;;;;;1.54;67.35;96523.84;4998510;28;20057;-67
2021/03/08 07:27:46;;;;;;;20.95;12.75;;;;;;;2.04;65.62;96531.47;5038564;28;20095;-67
2021/03/08 07:30:14;;;;;;;21.75;12.70;;;;;;;2.48;63.71;96530.38;5050711;28;20052;-67
2021/03/08 07:32:40;;;;;;;22.52;11.82;;;;;;;2.88;62.17;96525.16;5049991;28;20051;-67
2021/03/08 07:35:09;;;;;;;22.00;11.70;;;;;;;3.20;59.74;96526.03;5050550;28;20484;-67
2021/03/08 07:37:46;;;;;;;17.92;11.25;;;;;;;3.75;58.74;96527.94;5050005;28;20475;-67
2021/03/08 07:40:21;;;;;;;18.83;10.77;;;;;;;3.62;57.22;96529.28;5049985;28;20176;-67
2021/03/08 07:42:47;;;;;;;18.13;10.63;;;;;;;3.49;58.17;96535.19;5050718;28;20054;-67
2021/03/08 07:45:14;;;;;;;19.77;11.45;;;;;;;3.44;58.29;96537.09;5049511;28;20060;-67
2021/03/08 07:47:40;;;;;;;23.38;11.32;;;;;;;3.75;58.06;96536.00;5058438;28;20041;-67
2021/03/08 07:50:25;;;;;;;18.30;10.70;;;;;;;4.47;56.33;96531.31;5069282;28;20132;-67
2021/03/08 07:52:51;;;;;;;24.38;11.60;;;;;;;5.08;53.59;96543.78;5054645;28;20048;-67
2021/03/08 07:55:18;;;;;;;21.48;10.38;;;;;;;5.72;53.64;96542.81;5049470;28;20049;-67
2021/03/08 07:57:45;;;;;;;16.67;10.38;;;;;;;6.26;52.43;96539.09;5050202;28;20283;-68
2021/03/08 08:00:12;;;;;;;23.23;10.63;;;;;;;6.75;50.20;96544.28;5049685;28;20420;-67
2021/03/08 08:02:38;;;;;;;18.20;9.90;;;;;;;6.99;48.33;96546.94;5049836;28;20049;-67
2021/03/08 08:05:05;;;;;;;17.08;9.80;;;;;;;7.27;48.94;96549.84;5050124;28;20049;-68
2021/03/08 08:07:32;;;;;;;18.02;9.93;;;;;;;7.48;48.19;96544.97;5049460;28;20048;-68
2021/03/08 08:10:03;;;;;;;15.48;9.63;;;;;;;7.82;46.24;96547.41;5050714;28;20045;-67
2021/03/08 08:12:33;;;;;;;20.90;9.93;;;;;;;8.19;44.70;96560.09;5049407;28;20045;-68
2021/03/08 08:15:00;;;;;;;22.40;11.30;;;;;;;8.54;45.45;96547.84;5050673;28;20045;-67
2021/03/08 08:17:29;;;;;;;14.85;9.65;;;;;;;8.79;44.00;96545.75;5054972;28;20064;-67
2021/03/08 08:19:56;;;;;;;15.30;9.30;;;;;;;9.20;45.83;96544.91;5070861;28;20091;-67
2021/03/08 08:22:23;;;;;;;16.45;9.40;;;;;;;9.52;42.04;96544.75;5058297;28;20056;-67
2021/03/08 08:24:52;;;;;;;15.98;10.20;;;;;;;9.83;42.34;96549.50;5049751;28;20049;-67
2021/03/08 08:27:19;;;;;;;22.15;10.70;;;;;;;10.20;40.57;96543.66;5049425;28;20053;-67
2021/03/08 08:29:48;;;;;;;12.88;9.45;;;;;;;10.34;40.69;96540.09;5049516;28;20044;-67
2021/03/08 08:32:15;;;;;;;18.13;10.60;;;;;;;10.54;40.78;96549.63;5050151;28;20133;-67
2021/03/08 08:34:42;;;;;;;13.15;9.80;;;;;;;10.91;39.09;96553.81;5049825;28;20053;-67
2021/03/08 08:37:12;;;;;;;15.60;9.93;;;;;;;11.22;38.93;96549.13;5054076;28;20073;-67
2021/03/08 08:39:39;;;;;;;14.43;9.43;;;;;;;11.33;37.81;96537.88;5053499;28;20049;-67
2021/03/08 08:42:19;;;;;;;13.60;9.35;;;;;;;11.25;37.67;96547.66;5053450;28;20099;-67
2021/03/08 08:44:47;;;;;;;15.02;9.98;;;;;;;11.27;38.72;96550.88;5053977;28;20123;-67
2021/03/08 08:47:29;;;;;;;15.85;9.88;;;;;;;11.37;38.53;96549.78;5056995;28;20048;-67
2021/03/08 08:49:59;;;;;;;16.77;9.90;;;;;;;11.44;40.02;96555.56;5074432;28;20131;-67
2021/03/08 08:52:50;;;;;;;14.25;9.95;;;;;;;11.19;37.39;96555.19;5060057;28;20051;-74
2021/03/08 08:55:17;;;;;;;15.38;10.25;;;;;;;10.99;39.07;96555.78;5053200;28;20515;-71
2021/03/08 08:58:27;;;;;;;15.10;9.95;;;;;;;10.65;39.47;96559.97;5053286;28;20060;-71
2021/03/08 09:01:32;;;;;;;15.38;10.30;;;;;;;10.00;41.66;96557.78;5021642;28;20068;-70
2021/03/08 09:04:00;;;;;;;15.32;10.10;;;;;;;9.85;41.80;96560.84;5033826;28;20049;-70
2021/03/08 09:06:49;;;;;;;17.15;10.10;;;;;;;9.80;43.05;96555.53;5032960;28;20065;-70
2021/03/08 09:09:18;;;;;;;15.15;9.88;;;;;;;9.66;42.46;96563.75;5025922;28;20460;-70
2021/03/08 09:11:56;;;;;;;15.70;9.25;;;;;;;9.49;41.76;96558.94;5033649;28;20045;-71
2021/03/08 09:14:34;;;;;;;14.60;9.77;;;;;;;9.33;42.36;96554.94;5032211;28;20724;-72
2021/03/08 09:17:25;;;;;;;13.38;8.75;;;;;;;9.25;41.08;96558.41;5038386;28;20051;-70
2021/03/08 09:20:25;;;;;;;12.38;8.68;;;;;;;8.92;42.30;96555.78;5042340;28;20045;-70
2021/03/08 09:22:52;;;;;;;12.48;9.05;;;;;;;8.99;43.99;96549.97;5052581;28;20051;-72
2021/03/08 09:25:26;;;;;;;17.35;9.48;;;;;;;8.92;44.28;96555.78;5052934;28;20049;-70
2021/03/08 09:28:02;;;;;;;14.90;9.45;;;;;;;8.82;43.18;96556.81;5052072;28;20044;-72
2021/03/08 09:30:30;;;;;;;16.65;9.65;;;;;;;8.75;43.18;96555.59;5053550;28;20044;-70
2021/03/08 09:33:00;;;;;;;15.57;9.82;;;;;;;8.80;47.02;96555.50;5052172;28;20103;-69
2021/03/08 09:35:28;;;;;;;14.05;9.20;;;;;;;8.78;43.49;96555.81;5052712;28;20067;-70
2021/03/08 09:37:57;;;;;;;14.18;9.02;;;;;;;8.75;43.55;96555.59;5052618;28;20500;-69
2021/03/08 09:40:27;;;;;;;15.90;9.23;;;;;;;9.01;45.12;96570.28;5052105;28;20048;-70
2021/03/08 09:42:53;;;;;;;14.60;8.75;;;;;;;8.98;41.57;96549.16;5052762;28;20052;-70
2021/03/08 09:45:25;;;;;;;15.02;9.80;;;;;;;9.06;44.27;96556.59;5051836;28;20415;-70
2021/03/08 09:47:53;;;;;;;17.08;10.05;;;;;;;9.34;43.03;96559.28;5053000;28;20041;-70
2021/03/08 09:50:25;;;;;;;16.02;8.75;;;;;;;9.42;42.30;96558.56;5051497;28;20099;-70
2021/03/08 09:52:55;;;;;;;14.23;9.02;;;;;;;9.67;42.86;96555.28;5053160;28;20049;-72
2021/03/08 09:55:26;;;;;;;15.52;9.90;;;;;;;10.03;43.84;96550.91;5051843;28;20044;-71
2021/03/08 09:57:52;;;;;;;13.65;8.15;;;;;;;10.24;40.33;96556.69;5052450;28;20048;-70
2021/03/08 10:00:20;;;;;;;11.93;8.02;;;;;;;10.37;39.73;96555.78;5051927;28;20049;-70
2021/03/08 10:02:56;;;;;;;13.60;8.30;;;;;;;10.45;38.81;96555.84;5052092;28;20049;-70
2021/03/08 10:05:23;;;;;;;10.23;7.80;;;;;;;10.80;38.70;96557.94;5052380;28;20056;-70
2021/03/08 10:07:53;;;;;;;14.63;7.25;;;;;;;10.87;36.17;96550.13;5051616;28;20048;-70
2021/03/08 10:10:20;;;;;;;13.32;7.57;;;;;;;11.04;37.97;96557.56;5052462;28;20049;-71
2021/03/08 10:12:55;;;;;;;11.77;7.38;;;;;;;11.01;36.89;96558.97;5051552;28;20048;-71
2021/03/08 10:15:21;;;;;;;9.95;6.60;;;;;;;10.85;37.11;96555.88;5051994;28;20053;-71
2021/03/08 10:17:57;;;;;;;12.90;7.63;;;;;;;10.78;40.21;96560.19;5060585;28;20136;-71
2021/03/08 10:20:25;;;;;;;10.10;7.13;;;;;;;10.83;37.85;96560.84;5070364;28;20125;-71
2021/03/08 10:22:52;;;;;;;10.10;6.95;;;;;;;10.60;37.58;96560.09;5072068;28;20060;-71
2021/03/08 10:25:20;;;;;;;10.52;7.15;;;;;;;10.57;38.82;96555.28;5071099;28;20041;-70
2021/03/08 10:27:50;;;;;;;11.35;6.68;;;;;;;10.57;36.75;96555.28;5062916;28;20045;-70
2021/03/08 10:30:17;;;;;;;13.80;7.20;;;;;;;10.43;38.43;96560.00;5050883;28;20524;-70
2021/03/08 10:32:44;;;;;;;11.43;7.20;;;;;;;10.25;37.66;96569.19;5052372;28;20048;-70
2021/03/08 10:35:12;;;;;;;12.20;7.07;;;;;;;9.86;35.95;96567.88;5050913;28;20048;-72
2021/03/08 10:37:40;;;;;;;14.52;7.13;;;;;;;9.66;37.42;96559.13;5051899;28;20037;-70
2021/03/08 10:40:07;;;;;;;12.65;6.50;;;;;;;9.42;37.42;96564.00;5051338;28;20099;-72
2021/03/08 10:42:33;;;;;;;12.05;7.13;;;;;;;9.32;38.45;96564.22;5051579;28;20060;-69
2021/03/08 10:45:00;;;;;;;10.25;7.05;;;;;;;9.40;38.54;96563.50;5051774;28;20049;-71
2021/03/08 10:47:26;;;;;;;11.25;7.32;;;;;;;9.45;39.42;96565.28;5056396;28;20162;-71
2021/03/08 10:49:53;;;;;;;11.02;6.93;;;;;;;9.44;37.28;96566.41;5070355;28;20079;-70
2021/03/08 10:52:20;;;;;;;12.10;7.20;;;;;;;9.38;38.09;96568.44;5057938;28;20044;-70
2021/03/08 10:54:47;;;;;;;9.90;6.55;;;;;;;9.41;37.11;96563.19;5052069;28;20037;-70
2021/03/08 10:57:13;;;;;;;11.07;6.95;;;;;;;9.42;38.24;96569.44;5050132;28;20072;-70
2021/03/08 10:59:47;;;;;;;11.57;6.30;;;;;;;9.35;36.75;96563.63;5051926;28;20049;-70
2021/03/08 11:02:15;;;;;;;;;;;;;;;9.30;37.41;96561.00;5051158;28;20037;-70
2021/03/08 11:04:41;;;;;;;10.75;6.82;;;;;;;8.77;35.66;96562.34;5051326;28;19968;-71
2021/03/08 11:07:07;;;;;;;14.27;7.30;;;;;;;8.68;37.82;96561.44;5050597;28;20404;-70
2021/03/08 11:09:35;;;;;;;9.80;7.20;;;;;;;8.68;37.58;96560.63;5051092;28;20107;-70
2021/03/08 11:12:03;;;;;;;9.27;6.50;;;;;;;8.56;40.37;96553.78;5051237;28;20091;-70
2021/03/08 11:14:30;;;;;;;11.27;6.97;;;;;;;8.69;40.66;96552.16;5030602;28;20382;-70
2021/03/08 11:16:57;;;;;;;9.82;6.18;;;;;;;8.56;39.32;96542.94;5031492;28;20649;-70
2021/03/08 11:19:25;;;;;;;9.98;6.65;;;;;;;8.58;41.20;96546.13;5030291;28;20048;-70
2021/03/08 11:22:03;;;;;;;10.93;6.32;;;;;;;8.63;39.49;96543.31;5031674;28;20053;-70
2021/03/08 11:24:31;;;;;;;10.15;6.40;;;;;;;8.62;38.87;96547.16;5030475;28;20046;-70
2021/03/08 11:27:09;;;;;;;10.90;6.85;;;;;;;8.79;40.58;96548.47;5030837;28;20050;-70
2021/03/08 11:29:36;;;;;;;12.23;7.55;;;;;;;8.85;39.36;96550.78;5030886;28;20034;-70
2021/03/08 11:32:02;;;;;;;13.25;7.45;;;;;;;8.85;39.01;96541.81;5030329;28;20045;-70
2021/03/08 11:34:39;;;;;;;14.20;7.68;;;;;;;8.70;38.54;96547.53;5031350;28;20049;-70
2021/03/08 11:37:09;;;;;;;13.50;7.28;;;;;;;8.74;38.24;96548.56;5029750;28;20061;-70
2021/03/08 11:39:40;;;;;;;12.85;7.50;;;;;;;8.74;38.33;96548.56;5031696;28;20057;-71